createdAt,value
2019-03-20T00:00:25.161Z,57.24
2019-03-20T00:01:28.852Z,57.31
2019-03-20T00:02:32.520Z,57.05
2019-03-20T00:03:36.165Z,56.92
2019-03-20T00:04:49.321Z,56.76
2019-03-20T00:05:45.151Z,56.73
2019-03-20T00:06:48.785Z,56.97
2019-03-20T00:07:52.394Z,57.32
2019-03-20T00:08:56.028Z,57.32
2019-03-20T00:09:59.662Z,57.30
2019-03-20T00:11:03.374Z,57.30
2019-03-20T00:12:07.002Z,57.42
2019-03-20T00:13:10.743Z,57.87
2019-03-20T00:14:14.377Z,57.95
2019-03-20T00:15:20.631Z,57.56
2019-03-20T00:16:28.219Z,57.48
2019-03-20T00:17:31.779Z,57.65
2019-03-20T00:18:35.451Z,57.69
2019-03-20T00:19:39.078Z,57.68
2019-03-20T00:20:43.024Z,57.68
2019-03-20T00:21:46.658Z,58.18
2019-03-20T00:22:50.319Z,58.18
2019-03-20T00:23:54.018Z,57.76
2019-03-20T00:24:57.651Z,57.75
2019-03-20T00:26:01.277Z,57.74
2019-03-20T00:27:04.971Z,57.70
2019-03-20T00:28:08.643Z,57.91
2019-03-20T00:29:12.672Z,57.96
2019-03-20T00:30:20.247Z,57.87
2019-03-20T00:31:23.877Z,57.95
2019-03-20T00:32:27.503Z,57.97
2019-03-20T00:33:31.239Z,57.61
2019-03-20T00:34:35.007Z,57.52
2019-03-20T00:35:38.637Z,57.28
2019-03-20T00:36:42.263Z,57.70
2019-03-20T00:37:45.905Z,57.54
2019-03-20T00:38:49.593Z,57.23
2019-03-20T00:39:53.223Z,57.21
2019-03-20T00:40:56.844Z,57.27
2019-03-20T00:42:00.473Z,57.42
2019-03-20T00:43:04.111Z,57.42
2019-03-20T00:44:07.767Z,57.27
2019-03-20T00:45:16.020Z,57.55
2019-03-20T00:46:19.653Z,57.41
2019-03-20T00:47:23.286Z,57.41
2019-03-20T00:48:26.907Z,57.46
2019-03-20T00:49:30.582Z,57.59
2019-03-20T00:50:34.197Z,57.66
2019-03-20T00:51:37.839Z,57.52
2019-03-20T00:52:41.804Z,57.80
2019-03-20T00:53:46.017Z,58.10
2019-03-20T00:54:49.606Z,58.48
2019-03-20T00:55:53.240Z,58.23
2019-03-20T00:56:56.873Z,58.15
2019-03-20T00:58:00.504Z,58.17
2019-03-20T00:59:04.222Z,58.50
2019-03-20T01:00:10.781Z,58.59
2019-03-20T01:01:14.577Z,58.47
2019-03-20T01:02:18.521Z,58.41
2019-03-20T01:03:22.156Z,58.21
2019-03-20T01:04:25.794Z,58.53
2019-03-20T01:05:29.455Z,58.08
2019-03-20T01:06:33.406Z,57.80
2019-03-20T01:07:37.037Z,58.46
2019-03-20T01:08:40.607Z,58.87
2019-03-20T01:09:44.229Z,59.11
2019-03-20T01:10:47.895Z,59.38
2019-03-20T01:11:51.523Z,59.38
2019-03-20T01:12:55.330Z,59.98
2019-03-20T01:13:58.957Z,60.01
2019-03-20T01:15:02.660Z,60.20
2019-03-20T01:16:06.415Z,60.20
2019-03-20T01:17:10.474Z,60.18
2019-03-20T01:18:14.106Z,60.27
2019-03-20T01:19:18.127Z,60.23
2019-03-20T01:20:22.664Z,60.13
2019-03-20T01:21:26.514Z,60.41
2019-03-20T01:22:30.208Z,60.21
2019-03-20T01:23:33.826Z,60.50
2019-03-20T01:24:37.392Z,60.45
2019-03-20T01:25:41.031Z,60.21
2019-03-20T01:26:44.690Z,60.02
2019-03-20T01:27:48.323Z,59.95
2019-03-20T01:28:52.154Z,59.82
2019-03-20T01:29:56.094Z,59.75
2019-03-20T01:30:59.785Z,59.74
2019-03-20T01:32:03.444Z,59.61
2019-03-20T01:33:14.402Z,59.53
2019-03-20T01:34:18.102Z,59.94
2019-03-20T01:35:24.092Z,60.01
2019-03-20T01:36:27.076Z,60.04
2019-03-20T01:37:30.736Z,60.37
2019-03-20T01:38:34.306Z,60.61
2019-03-20T01:39:37.922Z,60.28
2019-03-20T01:40:41.550Z,59.94
2019-03-20T01:41:45.188Z,59.76
2019-03-20T01:42:48.856Z,59.79
2019-03-20T01:43:52.470Z,59.63
2019-03-20T01:44:56.125Z,59.63
2019-03-20T01:45:59.737Z,59.46
2019-03-20T01:47:03.357Z,59.40
2019-03-20T01:48:07.127Z,59.43
2019-03-20T01:49:11.061Z,59.37
2019-03-20T01:50:14.699Z,59.43
2019-03-20T01:51:22.183Z,59.54
2019-03-20T01:52:25.810Z,59.41
2019-03-20T01:53:29.410Z,59.29
2019-03-20T01:54:32.971Z,59.54
2019-03-20T01:55:37.174Z,59.54
2019-03-20T01:56:41.219Z,59.44
2019-03-20T01:57:45.216Z,59.71
2019-03-20T01:58:48.893Z,59.90
2019-03-20T01:59:52.524Z,59.79
2019-03-20T02:00:56.239Z,59.61
2019-03-20T02:01:59.868Z,59.48
2019-03-20T02:03:03.931Z,59.39
2019-03-20T02:04:07.589Z,59.26
2019-03-20T02:05:11.518Z,58.91
2019-03-20T02:06:15.146Z,58.80
2019-03-20T02:07:18.782Z,58.86
2019-03-20T02:08:22.407Z,58.89
2019-03-20T02:09:26.068Z,59.00
2019-03-20T02:10:29.823Z,58.90
2019-03-20T02:11:33.442Z,58.86
2019-03-20T02:12:37.205Z,59.00
2019-03-20T02:13:40.842Z,59.19
2019-03-20T02:14:44.959Z,59.27
2019-03-20T02:15:48.928Z,59.33
2019-03-20T02:16:52.572Z,59.65
2019-03-20T02:17:56.283Z,60.26
2019-03-20T02:18:59.906Z,60.63
2019-03-20T02:20:03.674Z,60.93
2019-03-20T02:21:07.374Z,61.26
2019-03-20T02:22:10.934Z,61.06
2019-03-20T02:23:14.560Z,61.21
2019-03-20T02:24:18.189Z,61.76
2019-03-20T02:25:21.849Z,62.14
2019-03-20T02:26:25.520Z,62.46
2019-03-20T02:27:29.149Z,62.28
2019-03-20T02:28:33.137Z,61.97
2019-03-20T02:29:36.757Z,61.83
2019-03-20T02:30:40.497Z,61.70
2019-03-20T02:31:44.131Z,61.90
2019-03-20T02:32:47.919Z,62.01
2019-03-20T02:33:51.590Z,61.94
2019-03-20T02:34:55.269Z,61.58
2019-03-20T02:35:58.937Z,61.26
2019-03-20T02:37:02.667Z,61.05
2019-03-20T02:38:06.294Z,61.18
2019-03-20T02:39:10.309Z,61.57
2019-03-20T02:40:17.072Z,61.63
2019-03-20T02:41:20.630Z,61.61
2019-03-20T02:42:24.253Z,61.46
2019-03-20T02:43:27.907Z,61.35
2019-03-20T02:44:31.507Z,60.94
2019-03-20T02:45:35.243Z,61.11
2019-03-20T02:46:38.973Z,61.29
2019-03-20T02:47:42.596Z,61.37
2019-03-20T02:48:46.231Z,61.53
2019-03-20T02:49:49.949Z,61.78
2019-03-20T02:50:53.579Z,62.18
2019-03-20T02:51:57.237Z,61.99
2019-03-20T02:53:00.863Z,61.96
2019-03-20T02:54:04.494Z,62.21
2019-03-20T02:55:09.918Z,62.36
2019-03-20T02:56:13.571Z,62.41
2019-03-20T02:57:17.552Z,62.13
2019-03-20T02:58:21.150Z,62.05
2019-03-20T02:59:24.781Z,61.89
2019-03-20T03:00:28.517Z,61.68
2019-03-20T03:01:32.151Z,61.43
2019-03-20T03:02:35.815Z,61.51
2019-03-20T03:03:39.454Z,61.80
2019-03-20T03:04:43.082Z,61.84
2019-03-20T03:05:46.717Z,62.13
2019-03-20T03:06:50.342Z,62.04
2019-03-20T03:07:54.014Z,62.01
2019-03-20T03:08:57.644Z,63.02
2019-03-20T03:10:01.272Z,63.16
2019-03-20T03:11:05.041Z,63.60
2019-03-20T03:12:08.675Z,63.34
2019-03-20T03:13:12.341Z,63.24
2019-03-20T03:14:15.977Z,63.27
2019-03-20T03:15:19.607Z,63.39
2019-03-20T03:16:23.254Z,63.42
2019-03-20T03:17:26.887Z,63.52
2019-03-20T03:18:30.560Z,63.33
2019-03-20T03:19:34.507Z,63.37
2019-03-20T03:20:38.164Z,63.31
2019-03-20T03:21:41.795Z,63.33
2019-03-20T03:22:45.431Z,63.31
2019-03-20T03:23:49.101Z,63.02
2019-03-20T03:24:52.728Z,62.74
2019-03-20T03:25:56.364Z,62.92
2019-03-20T03:27:00.006Z,62.92
2019-03-20T03:28:03.741Z,63.06
2019-03-20T03:29:07.396Z,63.40
2019-03-20T03:30:20.055Z,63.38
2019-03-20T03:31:23.938Z,63.22
2019-03-20T03:32:27.590Z,63.25
2019-03-20T03:33:31.299Z,63.53
2019-03-20T03:34:34.977Z,63.73
2019-03-20T03:35:38.957Z,64.01
2019-03-20T03:36:42.911Z,63.85
2019-03-20T03:37:46.564Z,63.86
2019-03-20T03:38:50.165Z,63.81
2019-03-20T03:39:53.832Z,63.81
2019-03-20T03:40:57.464Z,63.99
2019-03-20T03:42:01.103Z,64.11
2019-03-20T03:43:04.740Z,64.30
2019-03-20T03:44:08.378Z,64.11
2019-03-20T03:45:18.303Z,64.34
2019-03-20T03:46:21.951Z,64.31
2019-03-20T03:47:25.588Z,64.19
2019-03-20T03:48:29.132Z,63.96
2019-03-20T03:49:32.777Z,63.99
2019-03-20T03:50:36.539Z,64.17
2019-03-20T03:51:40.098Z,64.16
2019-03-20T03:52:43.931Z,64.08
2019-03-20T03:53:47.556Z,64.02
2019-03-20T03:54:51.187Z,64.06
2019-03-20T03:55:54.857Z,63.89
2019-03-20T03:56:58.490Z,63.94
2019-03-20T03:58:02.122Z,63.83
2019-03-20T03:59:05.873Z,63.98
2019-03-20T04:00:18.744Z,63.98
2019-03-20T04:01:22.483Z,63.83
2019-03-20T04:02:26.136Z,63.80
2019-03-20T04:03:30.337Z,63.88
2019-03-20T04:04:33.965Z,63.91
2019-03-20T04:05:37.607Z,63.86
2019-03-20T04:06:41.268Z,64.07
2019-03-20T04:07:44.914Z,64.56
2019-03-20T04:08:48.554Z,64.65
2019-03-20T04:09:52.172Z,64.95
2019-03-20T04:10:55.817Z,64.82
2019-03-20T04:11:59.475Z,65.21
2019-03-20T04:13:03.104Z,65.46
2019-03-20T04:14:06.751Z,65.53
2019-03-20T04:15:12.548Z,65.78
2019-03-20T04:17:37.784Z,66.20
2019-03-20T04:18:41.424Z,66.58
2019-03-20T04:19:45.115Z,66.32
2019-03-20T04:20:48.737Z,66.38
2019-03-20T04:21:52.379Z,66.36
2019-03-20T04:22:56.037Z,66.50
2019-03-20T04:23:59.675Z,66.28
2019-03-20T04:25:03.714Z,65.83
2019-03-20T04:26:09.925Z,65.66
2019-03-20T04:27:13.577Z,65.36
2019-03-20T04:28:17.258Z,65.45
2019-03-20T04:29:20.891Z,65.44
2019-03-20T04:30:24.516Z,66.52
2019-03-20T04:31:28.145Z,68.12
2019-03-20T04:32:31.844Z,69.04
2019-03-20T04:33:35.594Z,69.98
2019-03-20T04:34:39.297Z,68.70
2019-03-20T04:35:42.935Z,68.61
2019-03-20T04:36:47.986Z,67.55
2019-03-20T04:37:52.009Z,68.03
2019-03-20T04:38:55.668Z,70.50
2019-03-20T04:39:59.316Z,70.98
2019-03-20T04:41:02.948Z,71.31
2019-03-20T04:42:06.599Z,70.70
2019-03-20T04:43:10.223Z,69.93
2019-03-20T04:44:13.823Z,69.49
2019-03-20T04:45:17.863Z,69.23
2019-03-20T04:46:21.512Z,69.60
2019-03-20T04:47:25.121Z,68.72
2019-03-20T04:48:28.786Z,68.11
2019-03-20T04:49:32.427Z,69.44
2019-03-20T04:50:35.987Z,69.14
2019-03-20T04:51:39.571Z,68.87
2019-03-20T04:52:43.143Z,68.97
2019-03-20T04:53:46.895Z,69.31
2019-03-20T04:54:50.520Z,68.81
2019-03-20T04:55:54.190Z,68.03
2019-03-20T04:56:57.789Z,68.08
2019-03-20T04:58:01.412Z,68.20
2019-03-20T04:59:05.934Z,68.26
2019-03-20T05:00:14.974Z,68.33
2019-03-20T05:01:18.598Z,68.20
2019-03-20T05:02:22.287Z,68.55
2019-03-20T05:03:25.930Z,68.27
2019-03-20T05:04:33.949Z,68.83
2019-03-20T05:05:37.594Z,69.24
2019-03-20T05:06:41.291Z,69.31
2019-03-20T05:07:45.054Z,68.87
2019-03-20T05:08:48.685Z,69.23
2019-03-20T05:09:52.349Z,68.79
2019-03-20T05:10:55.980Z,68.70
2019-03-20T05:11:59.977Z,68.90
2019-03-20T05:13:03.687Z,68.90
2019-03-20T05:14:07.320Z,69.19
2019-03-20T05:15:14.790Z,69.42
2019-03-20T05:16:18.412Z,69.64
2019-03-20T05:17:23.698Z,69.82
2019-03-20T05:18:27.330Z,69.38
2019-03-20T05:19:30.963Z,69.48
2019-03-20T05:20:34.627Z,69.22
2019-03-20T05:21:38.200Z,68.84
2019-03-20T05:22:44.108Z,68.73
2019-03-20T05:23:47.810Z,68.35
2019-03-20T05:24:51.516Z,68.49
2019-03-20T05:25:55.634Z,68.08
2019-03-20T05:26:59.366Z,68.09
2019-03-20T05:28:02.928Z,67.78
2019-03-20T05:29:06.552Z,67.94
2019-03-20T05:30:12.928Z,67.92
2019-03-20T05:31:16.661Z,67.89
2019-03-20T05:32:20.290Z,67.83
2019-03-20T05:33:23.933Z,68.07
2019-03-20T05:34:27.555Z,68.43
2019-03-20T05:35:31.193Z,68.31
2019-03-20T05:36:34.865Z,68.06
2019-03-20T05:37:38.510Z,68.53
2019-03-20T05:38:42.137Z,67.98
2019-03-20T05:39:45.775Z,68.08
2019-03-20T05:40:49.466Z,67.51
2019-03-20T05:41:53.141Z,68.12
2019-03-20T05:42:56.816Z,68.38
2019-03-20T05:44:00.450Z,67.87
2019-03-20T05:45:05.127Z,68.07
2019-03-20T05:46:08.765Z,68.20
2019-03-20T05:47:12.396Z,68.04
2019-03-20T05:48:16.037Z,68.16
2019-03-20T05:49:19.670Z,68.50
2019-03-20T05:51:14.847Z,68.71
2019-03-20T05:52:18.484Z,68.80
2019-03-20T05:53:22.113Z,68.49
2019-03-20T05:54:25.747Z,68.51
2019-03-20T05:55:29.380Z,68.67
2019-03-20T05:56:33.056Z,68.52
2019-03-20T05:57:36.684Z,68.79
2019-03-20T05:58:40.243Z,68.27
2019-03-20T05:59:43.876Z,68.22
2019-03-20T06:00:47.576Z,68.49
2019-03-20T06:01:51.174Z,68.36
2019-03-20T06:02:54.730Z,68.44
2019-03-20T06:03:58.361Z,68.33
2019-03-20T06:05:01.999Z,68.59
2019-03-20T06:06:05.635Z,68.26
2019-03-20T06:07:09.370Z,68.36
2019-03-20T06:08:13.006Z,68.44
2019-03-20T06:09:16.647Z,68.51
2019-03-20T06:10:20.607Z,68.12
2019-03-20T06:11:24.641Z,68.22
2019-03-20T06:12:28.315Z,67.79
2019-03-20T06:13:32.341Z,67.92
2019-03-20T06:14:35.977Z,68.04
2019-03-20T06:15:39.618Z,67.40
2019-03-20T06:16:43.257Z,67.50
2019-03-20T06:17:47.210Z,67.37
2019-03-20T06:18:51.014Z,67.46
2019-03-20T06:19:54.678Z,67.34
2019-03-20T06:20:58.285Z,67.24
2019-03-20T06:22:01.917Z,66.81
2019-03-20T06:23:05.990Z,66.71
2019-03-20T06:24:09.629Z,66.34
2019-03-20T06:25:14.409Z,66.25
2019-03-20T06:26:18.038Z,66.41
2019-03-20T06:27:21.593Z,66.65
2019-03-20T06:28:25.195Z,66.43
2019-03-20T06:29:28.829Z,65.50
2019-03-20T06:30:32.397Z,65.72
2019-03-20T06:31:36.041Z,65.69
2019-03-20T06:32:39.781Z,65.10
2019-03-20T06:33:43.450Z,64.21
2019-03-20T06:34:48.954Z,64.12
2019-03-20T06:35:52.649Z,63.60
2019-03-20T06:36:58.637Z,63.27
2019-03-20T06:38:02.271Z,63.19
2019-03-20T06:39:07.284Z,63.43
2019-03-20T06:40:12.921Z,63.26
2019-03-20T06:41:16.552Z,63.31
2019-03-20T06:42:20.188Z,62.70
2019-03-20T06:43:23.830Z,62.32
2019-03-20T06:44:27.571Z,62.16
2019-03-20T06:45:31.197Z,61.68
2019-03-20T06:46:34.929Z,61.61
2019-03-20T06:47:38.575Z,61.44
2019-03-20T06:48:42.207Z,61.22
2019-03-20T06:49:45.877Z,61.11
2019-03-20T06:50:49.526Z,60.34
2019-03-20T06:51:53.162Z,59.84
2019-03-20T06:52:56.790Z,59.38
2019-03-20T06:54:00.428Z,59.41
2019-03-20T06:55:04.695Z,59.43
2019-03-20T06:56:08.327Z,59.25
2019-03-20T06:57:11.955Z,58.99
2019-03-20T06:58:15.584Z,58.81
2019-03-20T06:59:31.433Z,58.59
2019-03-20T07:00:50.069Z,61.28
2019-03-20T07:01:53.571Z,61.48
2019-03-20T07:02:58.654Z,58.58
2019-03-20T07:04:11.051Z,57.58
2019-03-20T07:05:20.324Z,57.55
2019-03-20T07:06:32.607Z,57.24
2019-03-20T07:07:43.916Z,56.58
2019-03-20T07:08:51.126Z,56.06
2019-03-20T07:10:00.455Z,55.50
2019-03-20T07:11:06.015Z,55.13
2019-03-20T07:12:09.651Z,55.28
2019-03-20T07:13:13.670Z,54.75
2019-03-20T07:14:17.305Z,54.80
2019-03-20T07:15:21.110Z,53.95
2019-03-20T07:16:24.723Z,53.95
2019-03-20T07:17:28.375Z,53.79
2019-03-20T07:18:32.029Z,53.12
2019-03-20T07:19:35.665Z,53.12
2019-03-20T07:20:39.263Z,52.60
2019-03-20T07:21:42.965Z,52.60
2019-03-20T07:22:46.675Z,52.43
2019-03-20T07:23:52.772Z,52.13
2019-03-20T07:24:56.412Z,51.21
2019-03-20T07:26:00.112Z,50.84
2019-03-20T07:27:03.743Z,50.92
2019-03-20T07:28:07.372Z,50.78
2019-03-20T07:29:11.004Z,50.36
2019-03-20T07:30:14.642Z,50.39
2019-03-20T07:31:18.310Z,49.29
2019-03-20T07:32:21.952Z,49.00
2019-03-20T07:33:25.513Z,48.49
2019-03-20T07:34:29.144Z,48.34
2019-03-20T07:35:32.782Z,47.86
2019-03-20T07:36:36.431Z,47.55
2019-03-20T07:37:40.063Z,47.13
2019-03-20T07:38:43.709Z,46.37
2019-03-20T07:39:47.345Z,46.03
2019-03-20T07:40:50.982Z,46.02
2019-03-20T07:41:54.657Z,45.50
2019-03-20T07:43:08.280Z,45.68
2019-03-20T07:44:03.659Z,45.68
2019-03-20T07:45:09.835Z,45.90
2019-03-20T07:46:13.471Z,45.48
2019-03-20T07:47:17.109Z,44.04
2019-03-20T07:48:22.353Z,44.04
2019-03-20T07:49:26.104Z,43.70
2019-03-20T07:50:32.022Z,43.27
2019-03-20T07:51:36.036Z,43.00
2019-03-20T07:52:39.710Z,42.27
2019-03-20T07:53:43.340Z,42.19
2019-03-20T07:54:46.977Z,42.20
2019-03-20T07:55:51.016Z,42.67
2019-03-20T07:56:54.654Z,42.46
2019-03-20T07:57:58.321Z,42.13
2019-03-20T07:59:01.970Z,42.13
2019-03-20T08:00:08.506Z,41.56
2019-03-20T08:01:12.214Z,41.71
2019-03-20T08:02:15.839Z,41.12
2019-03-20T08:03:19.505Z,40.53
2019-03-20T08:04:23.075Z,40.53
2019-03-20T08:05:29.462Z,40.74
2019-03-20T08:06:32.149Z,40.26
2019-03-20T08:07:37.859Z,40.27
2019-03-20T08:08:41.567Z,40.51
2019-03-20T08:09:45.198Z,39.56
2019-03-20T08:10:49.388Z,40.19
2019-03-20T08:11:53.053Z,40.74
2019-03-20T08:12:56.684Z,40.76
2019-03-20T08:14:00.322Z,39.52
2019-03-20T08:15:05.476Z,38.87
2019-03-20T08:16:09.479Z,38.36
2019-03-20T08:17:13.367Z,38.15
2019-03-20T08:18:17.377Z,37.69
2019-03-20T08:19:20.936Z,37.33
2019-03-20T08:20:31.361Z,37.41
2019-03-20T08:21:35.058Z,37.68
2019-03-20T08:22:40.394Z,37.37
2019-03-20T08:23:44.117Z,37.48
2019-03-20T08:24:47.756Z,36.66
2019-03-20T08:25:51.395Z,36.80
2019-03-20T08:26:55.026Z,36.89
2019-03-20T08:27:58.760Z,36.38
2019-03-20T08:29:02.469Z,36.53
2019-03-20T08:30:09.013Z,36.37
2019-03-20T08:31:12.644Z,36.74
2019-03-20T08:32:16.214Z,36.77
2019-03-20T08:33:19.863Z,36.28
2019-03-20T08:34:23.607Z,36.04
2019-03-20T08:35:27.249Z,35.62
2019-03-20T08:36:30.888Z,36.13
2019-03-20T08:37:34.524Z,36.16
2019-03-20T08:38:38.191Z,34.99
2019-03-20T08:39:41.826Z,34.80
2019-03-20T08:40:46.712Z,34.75
2019-03-20T08:43:24.122Z,35.76
2019-03-20T08:44:27.782Z,34.58
2019-03-20T08:45:31.426Z,34.21
2019-03-20T08:46:35.113Z,33.68
2019-03-20T08:49:00.126Z,33.86
2019-03-20T08:50:07.850Z,33.14
2019-03-20T08:51:11.551Z,32.58
2019-03-20T08:52:15.181Z,31.80
2019-03-20T08:53:18.815Z,31.47
2019-03-20T08:54:25.219Z,30.62
2019-03-20T08:55:28.869Z,30.70
2019-03-20T08:56:33.234Z,30.54
2019-03-20T08:57:37.145Z,30.30
2019-03-20T08:58:40.886Z,29.75
2019-03-20T08:59:44.581Z,29.30
2019-03-20T09:00:48.259Z,29.01
2019-03-20T09:01:51.963Z,29.20
2019-03-20T09:02:55.769Z,29.25
2019-03-20T09:03:59.388Z,29.44
2019-03-20T09:05:03.028Z,29.79
2019-03-20T09:06:06.780Z,29.33
2019-03-20T09:07:10.428Z,29.01
2019-03-20T09:08:14.176Z,28.95
2019-03-20T09:09:17.822Z,28.26
2019-03-20T09:10:26.048Z,27.90
2019-03-20T09:12:52.676Z,27.49
2019-03-20T09:13:56.284Z,28.46
2019-03-20T09:14:59.941Z,28.62
2019-03-20T09:16:03.977Z,28.58
2019-03-20T09:17:07.640Z,27.28
2019-03-20T09:18:11.352Z,26.95
2019-03-20T09:19:14.990Z,27.17
2019-03-20T09:20:24.971Z,27.38
2019-03-20T09:21:28.622Z,26.24
2019-03-20T09:22:32.289Z,26.86
2019-03-20T09:23:36.119Z,27.10
2019-03-20T09:24:40.046Z,26.76
2019-03-20T09:25:43.685Z,25.90
2019-03-20T09:26:47.333Z,25.45
2019-03-20T09:27:51.109Z,24.67
2019-03-20T09:28:54.732Z,24.55
2019-03-20T09:29:58.504Z,25.02
2019-03-20T09:31:02.073Z,24.66
2019-03-20T09:32:05.711Z,24.30
2019-03-20T09:33:09.375Z,24.60
2019-03-20T09:34:13.068Z,24.63
2019-03-20T09:35:16.725Z,24.89
2019-03-20T09:36:20.357Z,24.64
2019-03-20T09:37:24.365Z,24.45
2019-03-20T09:38:28.032Z,25.24
2019-03-20T09:39:31.667Z,24.03
2019-03-20T09:40:35.423Z,23.30
2019-03-20T09:41:39.151Z,23.74
2019-03-20T09:42:42.798Z,23.49
2019-03-20T09:43:46.455Z,23.44
2019-03-20T09:44:50.164Z,23.05
2019-03-20T09:45:53.792Z,23.13
2019-03-20T09:46:57.441Z,23.37
2019-03-20T09:48:01.066Z,23.28
2019-03-20T09:49:04.763Z,23.76
2019-03-20T09:50:13.622Z,22.98
2019-03-20T09:51:17.599Z,22.57
2019-03-20T09:52:21.236Z,23.06
2019-03-20T09:53:25.420Z,23.79
2019-03-20T09:54:29.089Z,23.29
2019-03-20T09:55:33.083Z,23.60
2019-03-20T09:56:36.720Z,23.91
2019-03-20T09:57:40.354Z,22.61
2019-03-20T09:58:43.983Z,23.06
2019-03-20T09:59:47.709Z,23.13
2019-03-20T10:00:51.345Z,22.85
2019-03-20T10:01:54.911Z,22.05
2019-03-20T10:02:58.554Z,22.14
2019-03-20T10:04:02.182Z,21.94
2019-03-20T10:05:07.357Z,22.03
2019-03-20T10:06:10.995Z,23.33
2019-03-20T10:07:14.578Z,22.58
2019-03-20T10:08:18.205Z,22.85
2019-03-20T10:09:21.836Z,22.11
2019-03-20T10:10:29.620Z,22.27
2019-03-20T10:11:33.291Z,21.93
2019-03-20T10:12:36.954Z,22.30
2019-03-20T10:13:40.624Z,21.72
2019-03-20T10:14:44.612Z,21.60
2019-03-20T10:15:48.275Z,22.15
2019-03-20T10:16:51.990Z,22.55
2019-03-20T10:17:55.671Z,22.42
2019-03-20T10:18:59.337Z,23.31
2019-03-20T10:20:03.085Z,23.15
2019-03-20T10:21:06.788Z,23.50
2019-03-20T10:22:10.419Z,22.45
2019-03-20T10:23:14.060Z,23.14
2019-03-20T10:24:18.543Z,22.59
2019-03-20T10:25:22.252Z,22.65
2019-03-20T10:26:25.925Z,22.39
2019-03-20T10:27:30.057Z,23.90
2019-03-20T10:28:33.943Z,23.84
2019-03-20T10:29:37.852Z,22.27
2019-03-20T10:30:41.432Z,22.50
2019-03-20T10:31:45.106Z,22.39
2019-03-20T10:32:48.737Z,22.89
2019-03-20T10:33:52.371Z,22.86
2019-03-20T10:34:56.002Z,23.05
2019-03-20T10:35:59.627Z,23.09
2019-03-20T10:37:03.348Z,22.97
2019-03-20T10:38:06.979Z,22.40
2019-03-20T10:39:10.668Z,22.25
2019-03-20T10:40:25.279Z,23.01
2019-03-20T10:41:28.914Z,22.79
2019-03-20T10:42:32.589Z,22.23
2019-03-20T10:43:36.220Z,22.69
2019-03-20T10:44:39.854Z,22.19
2019-03-20T10:45:43.500Z,22.65
2019-03-20T10:46:47.127Z,21.95
2019-03-20T10:47:53.078Z,21.64
2019-03-20T10:48:56.588Z,21.66
2019-03-20T10:50:00.424Z,20.80
2019-03-20T10:51:04.005Z,20.74
2019-03-20T10:52:07.635Z,21.20
2019-03-20T10:53:11.668Z,20.61
2019-03-20T10:54:16.567Z,20.95
2019-03-20T10:55:20.598Z,21.19
2019-03-20T10:56:24.236Z,20.87
2019-03-20T10:57:27.852Z,19.93
2019-03-20T10:58:31.522Z,21.12
2019-03-20T10:59:35.154Z,19.83
2019-03-20T11:00:40.702Z,19.68
2019-03-20T11:01:44.146Z,20.44
2019-03-20T11:02:47.785Z,19.51
2019-03-20T11:03:51.445Z,19.37
2019-03-20T11:04:55.138Z,18.95
2019-03-20T11:05:58.757Z,19.20
2019-03-20T11:07:02.390Z,18.97
2019-03-20T11:08:05.964Z,18.79
2019-03-20T11:09:17.799Z,18.53
2019-03-20T11:10:20.427Z,18.57
2019-03-20T11:11:27.328Z,18.11
2019-03-20T11:12:29.412Z,17.87
2019-03-20T11:13:33.039Z,18.52
2019-03-20T11:14:36.702Z,18.34
2019-03-20T11:15:40.342Z,19.12
2019-03-20T11:16:43.980Z,18.93
2019-03-20T11:17:47.723Z,17.96
2019-03-20T11:18:51.357Z,18.01
2019-03-20T11:19:56.270Z,18.24
2019-03-20T11:21:00.057Z,17.56
2019-03-20T11:22:03.702Z,18.03
2019-03-20T11:23:07.330Z,18.11
2019-03-20T11:24:10.955Z,18.24
2019-03-20T11:25:25.316Z,18.30
2019-03-20T11:26:28.944Z,17.71
2019-03-20T11:27:33.486Z,17.96
2019-03-20T11:28:37.196Z,17.49
2019-03-20T11:29:40.827Z,17.16
2019-03-20T11:30:44.561Z,17.98
2019-03-20T11:31:48.202Z,17.69
2019-03-20T11:32:51.846Z,17.27
2019-03-20T11:33:55.471Z,17.52
2019-03-20T11:34:59.107Z,16.98
2019-03-20T11:36:02.770Z,16.33
2019-03-20T11:37:06.467Z,15.87
2019-03-20T11:38:10.112Z,17.13
2019-03-20T11:39:13.811Z,16.20
2019-03-20T11:40:31.499Z,16.62
2019-03-20T11:41:35.165Z,16.67
2019-03-20T11:42:40.719Z,16.68
2019-03-20T11:43:44.079Z,16.25
2019-03-20T11:44:47.731Z,16.03
2019-03-20T11:45:51.368Z,15.94
2019-03-20T11:46:55.042Z,15.90
2019-03-20T11:47:58.772Z,15.55
2019-03-20T11:49:02.406Z,15.14
2019-03-20T11:50:14.645Z,15.96
2019-03-20T11:51:18.279Z,15.01
2019-03-20T11:52:21.943Z,15.61
2019-03-20T11:53:25.586Z,16.09
2019-03-20T11:54:29.211Z,15.79
2019-03-20T11:55:32.916Z,15.79
2019-03-20T11:56:36.552Z,16.26
2019-03-20T11:57:40.219Z,16.01
2019-03-20T11:58:43.853Z,16.29
2019-03-20T11:59:47.489Z,16.27
2019-03-20T12:00:51.449Z,16.04
2019-03-20T12:01:55.138Z,15.66
2019-03-20T12:02:59.150Z,15.87
2019-03-20T12:04:02.793Z,16.13
2019-03-20T12:05:08.002Z,16.46
2019-03-20T12:06:11.638Z,17.02
2019-03-20T12:07:15.265Z,16.42
2019-03-20T12:08:19.285Z,16.31
2019-03-20T12:09:22.921Z,16.60
2019-03-20T12:10:27.968Z,16.95
2019-03-20T12:11:31.687Z,16.17
2019-03-20T12:12:35.661Z,16.30
2019-03-20T12:13:39.581Z,16.86
2019-03-20T12:14:43.217Z,16.34
2019-03-20T12:15:46.844Z,17.12
2019-03-20T12:16:50.472Z,16.45
2019-03-20T12:17:54.734Z,16.25
2019-03-20T12:18:58.401Z,17.06
2019-03-20T12:20:02.026Z,16.73
2019-03-20T12:21:05.760Z,17.01
2019-03-20T12:22:09.401Z,17.85
2019-03-20T12:23:13.036Z,17.84
2019-03-20T12:24:16.773Z,18.45
2019-03-20T12:25:37.685Z,17.98
2019-03-20T12:26:41.317Z,18.38
2019-03-20T12:27:44.948Z,17.95
2019-03-20T12:28:48.586Z,19.36
2019-03-20T12:29:52.259Z,17.94
2019-03-20T12:30:55.899Z,17.40
2019-03-20T12:31:59.532Z,17.34
2019-03-20T12:33:03.168Z,18.36
2019-03-20T12:34:06.799Z,20.09
2019-03-20T12:35:13.519Z,19.39
2019-03-20T12:36:17.148Z,19.89
2019-03-20T12:37:21.071Z,19.03
2019-03-20T12:38:24.709Z,20.04
2019-03-20T12:39:28.407Z,19.66
2019-03-20T12:40:32.073Z,20.47
2019-03-20T12:41:35.713Z,20.30
2019-03-20T12:42:39.337Z,20.32
2019-03-20T12:43:45.412Z,19.89
2019-03-20T12:44:48.321Z,20.11
2019-03-20T12:45:51.978Z,20.85
2019-03-20T12:46:55.953Z,20.15
2019-03-20T12:47:59.582Z,20.09
2019-03-20T12:49:03.211Z,20.58
2019-03-20T12:50:09.921Z,21.17
2019-03-20T12:51:13.577Z,20.65
2019-03-20T12:52:17.214Z,20.67
2019-03-20T12:53:23.765Z,21.19
2019-03-20T12:54:27.390Z,20.54
2019-03-20T12:55:31.349Z,20.63
2019-03-20T12:56:35.196Z,20.51
2019-03-20T12:57:38.936Z,20.09
2019-03-20T12:58:42.653Z,20.10
2019-03-20T12:59:46.295Z,20.13
2019-03-20T13:01:52.640Z,20.22
2019-03-20T13:02:56.362Z,19.75
2019-03-20T13:04:00.063Z,19.66
2019-03-20T13:05:05.500Z,20.37
2019-03-20T13:06:09.130Z,19.91
2019-03-20T13:07:12.820Z,20.00
2019-03-20T13:08:16.441Z,19.87
2019-03-20T13:09:20.083Z,19.79
2019-03-20T13:10:24.968Z,19.55
2019-03-20T13:11:28.600Z,19.40
2019-03-20T13:12:32.262Z,19.44
2019-03-20T13:13:35.890Z,19.00
2019-03-20T13:14:39.460Z,17.81
2019-03-20T13:15:43.096Z,18.46
2019-03-20T13:16:46.724Z,18.60
2019-03-20T13:17:50.599Z,18.51
2019-03-20T13:18:54.237Z,19.36
2019-03-20T13:19:57.856Z,18.70
2019-03-20T13:21:01.501Z,19.53
2019-03-20T13:22:05.201Z,21.09
2019-03-20T13:23:20.805Z,20.37
2019-03-20T13:24:24.435Z,20.78
2019-03-20T13:25:28.060Z,20.00
2019-03-20T13:26:32.206Z,20.27
2019-03-20T13:27:35.841Z,20.12
2019-03-20T13:28:39.488Z,19.83
2019-03-20T13:29:43.240Z,19.86
2019-03-20T13:30:55.536Z,20.62
2019-03-20T13:31:59.161Z,19.84
2019-03-20T13:33:02.807Z,20.45
2019-03-20T13:34:06.467Z,20.06
2019-03-20T13:35:10.901Z,19.90
2019-03-20T13:36:14.699Z,19.73
2019-03-20T13:37:18.338Z,20.06
2019-03-20T13:38:21.990Z,20.58
2019-03-20T13:39:25.651Z,20.53
2019-03-20T13:40:29.625Z,21.22
2019-03-20T13:41:33.266Z,20.37
2019-03-20T13:42:36.937Z,20.15
2019-03-20T13:43:40.563Z,20.38
2019-03-20T13:44:44.223Z,20.51
2019-03-20T13:45:47.854Z,20.86
2019-03-20T13:46:51.485Z,20.21
2019-03-20T13:47:55.122Z,19.50
2019-03-20T13:48:58.749Z,19.79
2019-03-20T13:50:02.410Z,19.97
2019-03-20T13:51:06.038Z,20.63
2019-03-20T13:52:09.689Z,21.62
2019-03-20T13:53:15.180Z,21.24